Terminal Aerodrome Forecast
Issued by NWS

Home | Current Version | Previous Version | Text Only | Print | Product List | Glossary On
Versions: 1 2 3 4 5 6 7 8 9 10 11 12
000
FTUS43 KBIS 240521
TAFDIK
TAF
KDIK 240521Z 2406/2506 17007KT P6SM SKC
     FM240800 11006KT P6SM SKC
     FM241200 13008KT P6SM VCFG SCT005
     FM241600 12011KT P6SM FEW080 FEW250=

USA.gov is the U.S. government's official web portal to all federal, state and local government web resources and services.